sensor_id;sensor_type;location;lat;lon;timestamp;P1;durP1;ratioP1;P2;durP2;ratioP2
14982;SDS011;7587;51.494;11.930;2022-07-30T00:01:37;5.60;;;4.80;;
14982;SDS011;7587;51.494;11.930;2022-07-30T00:04:03;5.80;;;4.82;;
14982;SDS011;7587;51.494;11.930;2022-07-30T00:06:30;6.15;;;5.53;;
14982;SDS011;7587;51.494;11.930;2022-07-30T00:08:56;6.82;;;5.40;;
14982;SDS011;7587;51.494;11.930;2022-07-30T00:11:24;5.47;;;4.93;;
14982;SDS011;7587;51.494;11.930;2022-07-30T00:13:50;5.80;;;5.03;;
14982;SDS011;7587;51.494;11.930;2022-07-30T00:16:16;7.30;;;5.47;;
14982;SDS011;7587;51.494;11.930;2022-07-30T00:18:43;7.05;;;5.80;;
14982;SDS011;7587;51.494;11.930;2022-07-30T00:21:09;5.72;;;5.22;;
14982;SDS011;7587;51.494;11.930;2022-07-30T00:23:35;8.45;;;5.70;;
14982;SDS011;7587;51.494;11.930;2022-07-30T00:26:02;5.80;;;5.30;;
14982;SDS011;7587;51.494;11.930;2022-07-30T00:28:29;8.70;;;6.35;;
14982;SDS011;7587;51.494;11.930;2022-07-30T00:30:56;6.22;;;5.63;;
14982;SDS011;7587;51.494;11.930;2022-07-30T00:33:22;6.30;;;5.70;;
14982;SDS011;7587;51.494;11.930;2022-07-30T00:35:48;7.82;;;6.15;;
14982;SDS011;7587;51.494;11.930;2022-07-30T00:38:14;6.05;;;5.30;;
14982;SDS011;7587;51.494;11.930;2022-07-30T00:40:41;6.35;;;5.75;;
14982;SDS011;7587;51.494;11.930;2022-07-30T00:43:07;6.13;;;5.53;;
14982;SDS011;7587;51.494;11.930;2022-07-30T00:45:35;6.68;;;5.95;;
14982;SDS011;7587;51.494;11.930;2022-07-30T00:48:01;7.15;;;5.57;;
14982;SDS011;7587;51.494;11.930;2022-07-30T00:50:27;5.85;;;5.30;;
14982;SDS011;7587;51.494;11.930;2022-07-30T00:52:54;5.95;;;5.45;;
14982;SDS011;7587;51.494;11.930;2022-07-30T00:55:20;8.07;;;6.25;;
14982;SDS011;7587;51.494;11.930;2022-07-30T00:57:46;6.90;;;6.20;;
14982;SDS011;7587;51.494;11.930;2022-07-30T01:00:13;6.97;;;6.05;;
14982;SDS011;7587;51.494;11.930;2022-07-30T01:02:48;7.07;;;5.68;;
14982;SDS011;7587;51.494;11.930;2022-07-30T01:05:15;6.88;;;6.22;;
14982;SDS011;7587;51.494;11.930;2022-07-30T01:07:42;5.85;;;5.35;;
14982;SDS011;7587;51.494;11.930;2022-07-30T01:10:09;6.57;;;6.00;;
14982;SDS011;7587;51.494;11.930;2022-07-30T01:12:36;6.18;;;5.57;;
14982;SDS011;7587;51.494;11.930;2022-07-30T01:15:03;6.25;;;5.65;;
14982;SDS011;7587;51.494;11.930;2022-07-30T01:17:30;7.32;;;6.07;;
14982;SDS011;7587;51.494;11.930;2022-07-30T01:19:59;7.50;;;6.53;;
14982;SDS011;7587;51.494;11.930;2022-07-30T01:22:38;7.40;;;5.90;;
14982;SDS011;7587;51.494;11.930;2022-07-30T01:25:08;7.00;;;6.40;;
14982;SDS011;7587;51.494;11.930;2022-07-30T01:27:39;7.50;;;6.07;;
14982;SDS011;7587;51.494;11.930;2022-07-30T01:30:06;6.35;;;5.75;;
14982;SDS011;7587;51.494;11.930;2022-07-30T01:32:34;6.55;;;5.95;;
14982;SDS011;7587;51.494;11.930;2022-07-30T01:35:02;6.18;;;5.57;;
14982;SDS011;7587;51.494;11.930;2022-07-30T01:37:29;6.20;;;5.70;;
14982;SDS011;7587;51.494;11.930;2022-07-30T01:39:56;6.78;;;6.18;;
14982;SDS011;7587;51.494;11.930;2022-07-30T01:42:23;6.43;;;5.93;;
14982;SDS011;7587;51.494;11.930;2022-07-30T01:44:51;8.32;;;6.32;;
14982;SDS011;7587;51.494;11.930;2022-07-30T01:47:18;6.55;;;6.05;;
14982;SDS011;7587;51.494;11.930;2022-07-30T01:49:45;6.90;;;6.05;;
14982;SDS011;7587;51.494;11.930;2022-07-30T01:52:12;8.63;;;6.47;;
14982;SDS011;7587;51.494;11.930;2022-07-30T01:54:39;6.80;;;6.07;;
14982;SDS011;7587;51.494;11.930;2022-07-30T01:57:07;7.30;;;6.65;;
14982;SDS011;7587;51.494;11.930;2022-07-30T01:59:34;6.43;;;5.95;;
14982;SDS011;7587;51.494;11.930;2022-07-30T02:02:03;8.55;;;6.95;;
14982;SDS011;7587;51.494;11.930;2022-07-30T02:04:29;10.35;;;6.35;;
14982;SDS011;7587;51.494;11.930;2022-07-30T02:06:58;7.20;;;6.40;;
14982;SDS011;7587;51.494;11.930;2022-07-30T02:09:27;6.80;;;6.28;;
14982;SDS011;7587;51.494;11.930;2022-07-30T02:11:54;7.10;;;6.50;;
14982;SDS011;7587;51.494;11.930;2022-07-30T02:14:40;7.50;;;6.80;;
14982;SDS011;7587;51.494;11.930;2022-07-30T02:17:12;10.02;;;6.82;;
14982;SDS011;7587;51.494;11.930;2022-07-30T02:19:42;7.50;;;6.80;;
14982;SDS011;7587;51.494;11.930;2022-07-30T02:22:10;7.50;;;6.88;;
14982;SDS011;7587;51.494;11.930;2022-07-30T02:24:37;9.02;;;6.82;;
14982;SDS011;7587;51.494;11.930;2022-07-30T02:27:08;7.15;;;6.55;;
14982;SDS011;7587;51.494;11.930;2022-07-30T02:29:37;7.63;;;7.00;;
14982;SDS011;7587;51.494;11.930;2022-07-30T02:32:05;7.90;;;7.13;;
14982;SDS011;7587;51.494;11.930;2022-07-30T02:34:35;7.28;;;6.65;;
14982;SDS011;7587;51.494;11.930;2022-07-30T02:37:02;7.47;;;6.78;;
14982;SDS011;7587;51.494;11.930;2022-07-30T02:39:29;7.40;;;6.80;;
14982;SDS011;7587;51.494;11.930;2022-07-30T02:41:58;8.20;;;7.40;;
14982;SDS011;7587;51.494;11.930;2022-07-30T02:44:25;7.68;;;7.00;;
14982;SDS011;7587;51.494;11.930;2022-07-30T02:46:53;8.07;;;7.28;;
14982;SDS011;7587;51.494;11.930;2022-07-30T02:49:20;7.75;;;7.05;;
14982;SDS011;7587;51.494;11.930;2022-07-30T02:51:48;8.40;;;7.63;;
14982;SDS011;7587;51.494;11.930;2022-07-30T02:54:16;9.10;;;8.20;;
14982;SDS011;7587;51.494;11.930;2022-07-30T02:56:43;8.98;;;7.57;;
14982;SDS011;7587;51.494;11.930;2022-07-30T02:59:11;8.77;;;7.97;;
14982;SDS011;7587;51.494;11.930;2022-07-30T03:01:38;9.30;;;8.25;;
14982;SDS011;7587;51.494;11.930;2022-07-30T03:04:06;8.45;;;7.63;;
14982;SDS011;7587;51.494;11.930;2022-07-30T03:06:32;8.82;;;7.90;;
14982;SDS011;7587;51.494;11.930;2022-07-30T03:09:01;8.77;;;7.97;;
14982;SDS011;7587;51.494;11.930;2022-07-30T03:11:28;8.93;;;7.80;;
14982;SDS011;7587;51.494;11.930;2022-07-30T03:13:55;7.50;;;6.85;;
14982;SDS011;7587;51.494;11.930;2022-07-30T03:16:22;8.30;;;7.50;;
14982;SDS011;7587;51.494;11.930;2022-07-30T03:18:49;8.45;;;7.75;;
14982;SDS011;7587;51.494;11.930;2022-07-30T03:21:18;8.43;;;7.63;;
14982;SDS011;7587;51.494;11.930;2022-07-30T03:23:45;8.77;;;7.88;;
14982;SDS011;7587;51.494;11.930;2022-07-30T03:26:14;9.38;;;8.57;;
14982;SDS011;7587;51.494;11.930;2022-07-30T03:28:41;10.05;;;8.18;;
14982;SDS011;7587;51.494;11.930;2022-07-30T03:31:07;8.70;;;7.90;;
14982;SDS011;7587;51.494;11.930;2022-07-30T03:33:35;8.43;;;7.38;;
14982;SDS011;7587;51.494;11.930;2022-07-30T03:36:01;10.85;;;8.20;;
14982;SDS011;7587;51.494;11.930;2022-07-30T03:38:28;9.07;;;8.20;;
14982;SDS011;7587;51.494;11.930;2022-07-30T03:40:54;9.15;;;8.02;;
14982;SDS011;7587;51.494;11.930;2022-07-30T03:43:23;10.65;;;8.35;;
14982;SDS011;7587;51.494;11.930;2022-07-30T03:45:49;10.32;;;9.00;;
14982;SDS011;7587;51.494;11.930;2022-07-30T03:48:16;9.90;;;8.90;;
14982;SDS011;7587;51.494;11.930;2022-07-30T03:50:42;10.63;;;9.63;;
14982;SDS011;7587;51.494;11.930;2022-07-30T03:53:09;10.45;;;9.45;;
14982;SDS011;7587;51.494;11.930;2022-07-30T03:55:36;9.35;;;8.50;;
14982;SDS011;7587;51.494;11.930;2022-07-30T03:58:05;11.35;;;10.30;;
14982;SDS011;7587;51.494;11.930;2022-07-30T04:00:33;12.60;;;10.18;;
14982;SDS011;7587;51.494;11.930;2022-07-30T04:02:59;11.45;;;10.27;;
14982;SDS011;7587;51.494;11.930;2022-07-30T04:05:26;13.27;;;9.75;;
14982;SDS011;7587;51.494;11.930;2022-07-30T04:07:52;9.75;;;8.40;;
14982;SDS011;7587;51.494;11.930;2022-07-30T04:10:18;12.10;;;9.10;;
14982;SDS011;7587;51.494;11.930;2022-07-30T04:12:45;9.38;;;8.48;;
14982;SDS011;7587;51.494;11.930;2022-07-30T04:15:11;11.15;;;7.95;;
14982;SDS011;7587;51.494;11.930;2022-07-30T04:17:40;12.18;;;8.20;;
14982;SDS011;7587;51.494;11.930;2022-07-30T04:20:08;8.82;;;7.93;;
14982;SDS011;7587;51.494;11.930;2022-07-30T04:22:35;8.20;;;7.43;;
14982;SDS011;7587;51.494;11.930;2022-07-30T04:25:03;8.45;;;7.65;;
14982;SDS011;7587;51.494;11.930;2022-07-30T04:27:33;10.02;;;7.70;;
14982;SDS011;7587;51.494;11.930;2022-07-30T04:29:59;9.20;;;8.02;;
14982;SDS011;7587;51.494;11.930;2022-07-30T04:32:26;8.70;;;7.53;;
14982;SDS011;7587;51.494;11.930;2022-07-30T04:34:54;9.15;;;7.68;;
14982;SDS011;7587;51.494;11.930;2022-07-30T04:37:21;9.07;;;7.80;;
14982;SDS011;7587;51.494;11.930;2022-07-30T04:39:48;11.82;;;8.35;;
14982;SDS011;7587;51.494;11.930;2022-07-30T04:42:18;11.57;;;8.25;;
14982;SDS011;7587;51.494;11.930;2022-07-30T04:44:44;10.57;;;8.07;;
14982;SDS011;7587;51.494;11.930;2022-07-30T04:47:11;9.35;;;7.95;;
14982;SDS011;7587;51.494;11.930;2022-07-30T04:49:37;10.02;;;7.50;;
14982;SDS011;7587;51.494;11.930;2022-07-30T04:52:05;11.07;;;8.10;;
14982;SDS011;7587;51.494;11.930;2022-07-30T04:54:33;7.72;;;7.03;;
14982;SDS011;7587;51.494;11.930;2022-07-30T04:57:02;7.88;;;7.07;;
14982;SDS011;7587;51.494;11.930;2022-07-30T04:59:29;9.55;;;6.78;;
14982;SDS011;7587;51.494;11.930;2022-07-30T05:01:56;7.97;;;6.80;;
14982;SDS011;7587;51.494;11.930;2022-07-30T05:04:23;7.57;;;6.72;;
14982;SDS011;7587;51.494;11.930;2022-07-30T05:06:50;9.98;;;7.18;;
14982;SDS011;7587;51.494;11.930;2022-07-30T05:09:18;7.18;;;6.47;;
14982;SDS011;7587;51.494;11.930;2022-07-30T05:11:48;10.07;;;7.05;;
14982;SDS011;7587;51.494;11.930;2022-07-30T05:14:14;7.18;;;6.38;;
14982;SDS011;7587;51.494;11.930;2022-07-30T05:16:41;8.60;;;6.63;;
14982;SDS011;7587;51.494;11.930;2022-07-30T05:19:07;8.43;;;6.78;;
14982;SDS011;7587;51.494;11.930;2022-07-30T05:21:33;7.65;;;6.90;;
14982;SDS011;7587;51.494;11.930;2022-07-30T05:24:00;8.45;;;6.80;;
14982;SDS011;7587;51.494;11.930;2022-07-30T05:26:27;8.52;;;6.88;;
14982;SDS011;7587;51.494;11.930;2022-07-30T05:28:54;7.53;;;6.72;;
14982;SDS011;7587;51.494;11.930;2022-07-30T05:31:20;8.68;;;6.55;;
14982;SDS011;7587;51.494;11.930;2022-07-30T05:33:47;10.38;;;6.38;;
14982;SDS011;7587;51.494;11.930;2022-07-30T05:36:13;8.95;;;6.95;;
14982;SDS011;7587;51.494;11.930;2022-07-30T05:38:39;10.85;;;6.25;;
14982;SDS011;7587;51.494;11.930;2022-07-30T05:41:05;9.88;;;7.25;;
14982;SDS011;7587;51.494;11.930;2022-07-30T05:43:33;7.72;;;6.53;;
14982;SDS011;7587;51.494;11.930;2022-07-30T05:46:00;7.47;;;6.18;;
14982;SDS011;7587;51.494;11.930;2022-07-30T05:48:26;8.80;;;6.15;;
14982;SDS011;7587;51.494;11.930;2022-07-30T05:50:52;10.73;;;6.10;;
14982;SDS011;7587;51.494;11.930;2022-07-30T05:53:19;8.02;;;6.72;;
14982;SDS011;7587;51.494;11.930;2022-07-30T05:55:45;6.70;;;5.90;;
14982;SDS011;7587;51.494;11.930;2022-07-30T05:58:12;9.10;;;6.60;;
14982;SDS011;7587;51.494;11.930;2022-07-30T06:00:39;6.72;;;6.05;;
14982;SDS011;7587;51.494;11.930;2022-07-30T06:03:06;8.45;;;6.38;;
14982;SDS011;7587;51.494;11.930;2022-07-30T06:05:32;6.78;;;6.18;;
14982;SDS011;7587;51.494;11.930;2022-07-30T06:07:58;8.32;;;6.63;;
14982;SDS011;7587;51.494;11.930;2022-07-30T06:10:25;8.35;;;6.45;;
14982;SDS011;7587;51.494;11.930;2022-07-30T06:12:51;9.45;;;6.43;;
14982;SDS011;7587;51.494;11.930;2022-07-30T06:15:17;6.47;;;5.93;;
14982;SDS011;7587;51.494;11.930;2022-07-30T06:17:46;8.90;;;6.32;;
14982;SDS011;7587;51.494;11.930;2022-07-30T06:20:13;10.80;;;6.65;;
14982;SDS011;7587;51.494;11.930;2022-07-30T06:22:39;10.95;;;6.00;;
14982;SDS011;7587;51.494;11.930;2022-07-30T06:25:07;7.32;;;6.63;;
14982;SDS011;7587;51.494;11.930;2022-07-30T06:27:33;6.82;;;5.85;;
14982;SDS011;7587;51.494;11.930;2022-07-30T06:30:00;6.78;;;5.82;;
14982;SDS011;7587;51.494;11.930;2022-07-30T06:32:26;8.88;;;6.03;;
14982;SDS011;7587;51.494;11.930;2022-07-30T06:34:54;8.05;;;5.60;;
14982;SDS011;7587;51.494;11.930;2022-07-30T06:37:21;10.27;;;5.45;;
14982;SDS011;7587;51.494;11.930;2022-07-30T06:39:47;6.50;;;5.75;;
14982;SDS011;7587;51.494;11.930;2022-07-30T06:42:13;6.63;;;5.30;;
14982;SDS011;7587;51.494;11.930;2022-07-30T06:44:40;7.40;;;5.15;;
14982;SDS011;7587;51.494;11.930;2022-07-30T06:47:06;7.07;;;5.70;;
14982;SDS011;7587;51.494;11.930;2022-07-30T06:49:32;5.97;;;5.38;;
14982;SDS011;7587;51.494;11.930;2022-07-30T06:52:00;6.70;;;5.63;;
14982;SDS011;7587;51.494;11.930;2022-07-30T06:54:27;6.15;;;5.40;;
14982;SDS011;7587;51.494;11.930;2022-07-30T06:56:54;7.40;;;5.65;;
14982;SDS011;7587;51.494;11.930;2022-07-30T06:59:20;8.90;;;5.47;;
14982;SDS011;7587;51.494;11.930;2022-07-30T07:01:46;9.73;;;5.55;;
14982;SDS011;7587;51.494;11.930;2022-07-30T07:04:13;8.27;;;4.93;;
14982;SDS011;7587;51.494;11.930;2022-07-30T07:06:39;6.80;;;5.10;;
14982;SDS011;7587;51.494;11.930;2022-07-30T07:09:07;11.68;;;5.00;;
14982;SDS011;7587;51.494;11.930;2022-07-30T07:11:33;6.13;;;5.05;;
14982;SDS011;7587;51.494;11.930;2022-07-30T07:14:00;10.30;;;5.60;;
14982;SDS011;7587;51.494;11.930;2022-07-30T07:16:26;7.68;;;5.30;;
14982;SDS011;7587;51.494;11.930;2022-07-30T07:18:52;7.07;;;6.00;;
14982;SDS011;7587;51.494;11.930;2022-07-30T07:21:19;6.13;;;5.10;;
14982;SDS011;7587;51.494;11.930;2022-07-30T07:23:45;6.03;;;5.43;;
14982;SDS011;7587;51.494;11.930;2022-07-30T07:26:14;6.10;;;5.22;;
14982;SDS011;7587;51.494;11.930;2022-07-30T07:28:41;6.47;;;5.00;;
14982;SDS011;7587;51.494;11.930;2022-07-30T07:31:07;5.60;;;5.00;;
14982;SDS011;7587;51.494;11.930;2022-07-30T07:33:34;7.00;;;5.20;;
14982;SDS011;7587;51.494;11.930;2022-07-30T07:36:00;6.72;;;4.95;;
14982;SDS011;7587;51.494;11.930;2022-07-30T07:38:27;6.97;;;5.40;;
14982;SDS011;7587;51.494;11.930;2022-07-30T07:40:53;8.43;;;5.57;;
14982;SDS011;7587;51.494;11.930;2022-07-30T07:43:21;6.88;;;5.13;;
14982;SDS011;7587;51.494;11.930;2022-07-30T07:45:49;6.15;;;4.78;;
14982;SDS011;7587;51.494;11.930;2022-07-30T07:48:22;6.38;;;5.15;;
14982;SDS011;7587;51.494;11.930;2022-07-30T07:50:48;7.60;;;5.18;;
14982;SDS011;7587;51.494;11.930;2022-07-30T07:53:15;8.63;;;5.15;;
14982;SDS011;7587;51.494;11.930;2022-07-30T07:55:41;6.90;;;5.63;;
14982;SDS011;7587;51.494;11.930;2022-07-30T07:58:07;6.43;;;5.40;;
14982;SDS011;7587;51.494;11.930;2022-07-30T08:00:36;7.15;;;5.35;;
14982;SDS011;7587;51.494;11.930;2022-07-30T08:03:03;9.40;;;5.50;;
14982;SDS011;7587;51.494;11.930;2022-07-30T08:05:30;6.95;;;5.40;;
14982;SDS011;7587;51.494;11.930;2022-07-30T08:07:56;7.97;;;5.22;;
14982;SDS011;7587;51.494;11.930;2022-07-30T08:10:22;7.78;;;5.35;;
14982;SDS011;7587;51.494;11.930;2022-07-30T08:12:49;9.48;;;5.90;;
14982;SDS011;7587;51.494;11.930;2022-07-30T08:15:15;6.45;;;5.30;;
14982;SDS011;7587;51.494;11.930;2022-07-30T08:17:43;7.20;;;5.40;;
14982;SDS011;7587;51.494;11.930;2022-07-30T08:20:11;5.47;;;5.00;;
14982;SDS011;7587;51.494;11.930;2022-07-30T08:22:37;6.30;;;4.90;;
14982;SDS011;7587;51.494;11.930;2022-07-30T08:25:05;8.15;;;5.18;;
14982;SDS011;7587;51.494;11.930;2022-07-30T08:27:32;6.15;;;5.57;;
14982;SDS011;7587;51.494;11.930;2022-07-30T08:30:01;9.93;;;5.90;;
14982;SDS011;7587;51.494;11.930;2022-07-30T08:32:27;7.88;;;5.85;;
14982;SDS011;7587;51.494;11.930;2022-07-30T08:34:56;9.00;;;5.97;;
14982;SDS011;7587;51.494;11.930;2022-07-30T08:37:23;10.38;;;6.15;;
14982;SDS011;7587;51.494;11.930;2022-07-30T08:39:49;6.63;;;5.93;;
14982;SDS011;7587;51.494;11.930;2022-07-30T08:42:15;7.90;;;6.00;;
14982;SDS011;7587;51.494;11.930;2022-07-30T08:44:49;9.95;;;6.10;;
14982;SDS011;7587;51.494;11.930;2022-07-30T08:47:17;6.47;;;5.88;;
14982;SDS011;7587;51.494;11.930;2022-07-30T08:49:46;8.48;;;6.15;;
14982;SDS011;7587;51.494;11.930;2022-07-30T08:52:14;9.23;;;6.28;;
14982;SDS011;7587;51.494;11.930;2022-07-30T08:54:40;8.50;;;6.78;;
14982;SDS011;7587;51.494;11.930;2022-07-30T08:57:07;7.22;;;6.40;;
14982;SDS011;7587;51.494;11.930;2022-07-30T08:59:34;8.85;;;6.22;;
14982;SDS011;7587;51.494;11.930;2022-07-30T09:02:01;9.10;;;7.07;;
14982;SDS011;7587;51.494;11.930;2022-07-30T09:04:27;8.30;;;6.30;;
14982;SDS011;7587;51.494;11.930;2022-07-30T09:06:54;10.05;;;7.03;;
14982;SDS011;7587;51.494;11.930;2022-07-30T09:09:22;8.88;;;6.90;;
14982;SDS011;7587;51.494;11.930;2022-07-30T09:11:49;10.85;;;7.55;;
14982;SDS011;7587;51.494;11.930;2022-07-30T09:14:15;10.60;;;6.25;;
14982;SDS011;7587;51.494;11.930;2022-07-30T09:16:42;8.18;;;6.25;;
14982;SDS011;7587;51.494;11.930;2022-07-30T09:19:13;8.48;;;6.60;;
14982;SDS011;7587;51.494;11.930;2022-07-30T09:21:39;7.10;;;6.30;;
14982;SDS011;7587;51.494;11.930;2022-07-30T09:24:07;7.85;;;7.13;;
14982;SDS011;7587;51.494;11.930;2022-07-30T09:29:20;7.13;;;6.45;;
14982;SDS011;7587;51.494;11.930;2022-07-30T09:32:01;7.07;;;5.97;;
14982;SDS011;7587;51.494;11.930;2022-07-30T09:34:28;9.85;;;6.18;;
14982;SDS011;7587;51.494;11.930;2022-07-30T09:36:55;7.93;;;7.13;;
14982;SDS011;7587;51.494;11.930;2022-07-30T09:39:31;7.82;;;6.97;;
14982;SDS011;7587;51.494;11.930;2022-07-30T09:41:57;7.60;;;6.63;;
14982;SDS011;7587;51.494;11.930;2022-07-30T09:44:25;7.20;;;6.57;;
14982;SDS011;7587;51.494;11.930;2022-07-30T09:46:53;9.32;;;7.15;;
14982;SDS011;7587;51.494;11.930;2022-07-30T09:49:20;7.57;;;6.85;;
14982;SDS011;7587;51.494;11.930;2022-07-30T09:51:47;7.68;;;6.43;;
14982;SDS011;7587;51.494;11.930;2022-07-30T09:54:13;8.35;;;6.93;;
14982;SDS011;7587;51.494;11.930;2022-07-30T09:56:40;8.00;;;6.82;;
14982;SDS011;7587;51.494;11.930;2022-07-30T09:59:10;9.23;;;6.68;;
14982;SDS011;7587;51.494;11.930;2022-07-30T10:01:51;9.73;;;7.50;;
14982;SDS011;7587;51.494;11.930;2022-07-30T10:04:22;10.00;;;7.47;;
14982;SDS011;7587;51.494;11.930;2022-07-30T10:06:48;10.80;;;7.63;;
14982;SDS011;7587;51.494;11.930;2022-07-30T10:09:23;8.48;;;7.45;;
14982;SDS011;7587;51.494;11.930;2022-07-30T10:11:49;9.50;;;7.28;;
14982;SDS011;7587;51.494;11.930;2022-07-30T10:14:16;8.40;;;7.22;;
14982;SDS011;7587;51.494;11.930;2022-07-30T10:16:43;7.93;;;7.22;;
14982;SDS011;7587;51.494;11.930;2022-07-30T10:19:11;8.07;;;7.28;;
14982;SDS011;7587;51.494;11.930;2022-07-30T10:21:38;8.82;;;7.22;;
14982;SDS011;7587;51.494;11.930;2022-07-30T10:24:04;8.40;;;7.53;;
14982;SDS011;7587;51.494;11.930;2022-07-30T10:26:37;9.60;;;7.53;;
14982;SDS011;7587;51.494;11.930;2022-07-30T10:29:04;9.05;;;7.38;;
14982;SDS011;7587;51.494;11.930;2022-07-30T10:31:30;10.57;;;7.95;;
14982;SDS011;7587;51.494;11.930;2022-07-30T10:33:57;8.13;;;6.97;;
14982;SDS011;7587;51.494;11.930;2022-07-30T10:36:25;8.38;;;7.50;;
14982;SDS011;7587;51.494;11.930;2022-07-30T10:38:52;10.18;;;7.95;;
14982;SDS011;7587;51.494;11.930;2022-07-30T10:41:23;9.10;;;8.20;;
14982;SDS011;7587;51.494;11.930;2022-07-30T10:44:00;8.75;;;7.85;;
